sensor_id;sensor_type;location;lat;lon;timestamp;pressure;altitude;pressure_sealevel;temperature;humidity
38616;BME280;24370;51.986;4.666;2022-07-29T00:00:34;101867.47;;;26.14;36.03
38616;BME280;24370;51.986;4.666;2022-07-29T00:02:59;101858.00;;;27.11;33.98
38616;BME280;24370;51.986;4.666;2022-07-29T00:05:25;101858.00;;;26.53;35.01
38616;BME280;24370;51.986;4.666;2022-07-29T00:07:50;101852.34;;;27.57;33.60
38616;BME280;24370;51.986;4.666;2022-07-29T00:10:16;101851.84;;;27.09;33.76
38616;BME280;24370;51.986;4.666;2022-07-29T00:12:41;101856.84;;;26.57;35.10
38616;BME280;24370;51.986;4.666;2022-07-29T00:15:07;101854.31;;;26.26;35.91
38616;BME280;24370;51.986;4.666;2022-07-29T00:17:32;101845.75;;;27.07;34.61
38616;BME280;24370;51.986;4.666;2022-07-29T00:19:59;101847.97;;;25.50;36.56
38616;BME280;24370;51.986;4.666;2022-07-29T00:22:24;101844.69;;;25.61;36.67
38616;BME280;24370;51.986;4.666;2022-07-29T00:24:50;101833.25;;;27.20;33.96
38616;BME280;24370;51.986;4.666;2022-07-29T00:27:16;101841.25;;;26.05;36.03
38616;BME280;24370;51.986;4.666;2022-07-29T00:29:42;101845.16;;;26.30;35.06
38616;BME280;24370;51.986;4.666;2022-07-29T00:32:07;101837.66;;;26.20;35.67
38616;BME280;24370;51.986;4.666;2022-07-29T00:34:32;101838.50;;;26.21;35.82
38616;BME280;24370;51.986;4.666;2022-07-29T00:37:16;101825.94;;;25.77;36.27
38616;BME280;24370;51.986;4.666;2022-07-29T00:39:42;101832.84;;;26.70;34.96
38616;BME280;24370;51.986;4.666;2022-07-29T00:42:07;101829.25;;;26.55;34.72
38616;BME280;24370;51.986;4.666;2022-07-29T00:44:40;101839.91;;;26.86;34.68
38616;BME280;24370;51.986;4.666;2022-07-29T00:47:07;101826.06;;;26.79;34.99
38616;BME280;24370;51.986;4.666;2022-07-29T00:49:33;101823.13;;;26.68;34.93
38616;BME280;24370;51.986;4.666;2022-07-29T00:52:04;101833.22;;;25.59;36.48
38616;BME280;24370;51.986;4.666;2022-07-29T00:54:30;101821.25;;;26.70;34.90
38616;BME280;24370;51.986;4.666;2022-07-29T00:56:59;101827.53;;;26.40;35.49
38616;BME280;24370;51.986;4.666;2022-07-29T00:59:26;101825.59;;;27.14;34.22
38616;BME280;24370;51.986;4.666;2022-07-29T01:01:52;101829.88;;;26.75;34.67
38616;BME280;24370;51.986;4.666;2022-07-29T01:04:17;101816.94;;;27.38;33.60
38616;BME280;24370;51.986;4.666;2022-07-29T01:06:42;101827.25;;;26.59;34.96
38616;BME280;24370;51.986;4.666;2022-07-29T01:09:08;101827.03;;;26.33;34.94
38616;BME280;24370;51.986;4.666;2022-07-29T01:11:35;101823.91;;;26.55;34.99
38616;BME280;24370;51.986;4.666;2022-07-29T01:14:01;101815.47;;;26.47;35.37
38616;BME280;24370;51.986;4.666;2022-07-29T01:16:39;101813.53;;;26.20;35.77
38616;BME280;24370;51.986;4.666;2022-07-29T01:19:45;101811.22;;;25.53;37.27
38616;BME280;24370;51.986;4.666;2022-07-29T01:25:10;101809.97;;;27.06;34.37
38616;BME280;24370;51.986;4.666;2022-07-29T01:30:38;101826.03;;;26.05;36.33
38616;BME280;24370;51.986;4.666;2022-07-29T01:33:07;101815.75;;;26.42;35.48
38616;BME280;24370;51.986;4.666;2022-07-29T01:35:39;101813.56;;;26.92;34.66
38616;BME280;24370;51.986;4.666;2022-07-29T01:38:12;101816.91;;;26.96;34.32
38616;BME280;24370;51.986;4.666;2022-07-29T01:40:48;101812.22;;;26.42;35.33
38616;BME280;24370;51.986;4.666;2022-07-29T01:43:17;101812.03;;;26.45;35.30
38616;BME280;24370;51.986;4.666;2022-07-29T01:45:59;101810.22;;;26.60;35.47
38616;BME280;24370;51.986;4.666;2022-07-29T01:51:29;101811.25;;;26.43;35.31
38616;BME280;24370;51.986;4.666;2022-07-29T01:54:14;101803.19;;;27.01;34.49
38616;BME280;24370;51.986;4.666;2022-07-29T01:56:42;101802.19;;;26.01;36.42
38616;BME280;24370;51.986;4.666;2022-07-29T01:59:10;101808.03;;;26.67;35.31
38616;BME280;24370;51.986;4.666;2022-07-29T02:01:37;101797.31;;;26.38;35.91
38616;BME280;24370;51.986;4.666;2022-07-29T02:04:06;101795.56;;;26.66;35.10
38616;BME280;24370;51.986;4.666;2022-07-29T02:06:34;101789.22;;;25.16;37.17
38616;BME280;24370;51.986;4.666;2022-07-29T02:09:02;101796.69;;;26.47;35.63
38616;BME280;24370;51.986;4.666;2022-07-29T02:11:31;101778.50;;;26.96;34.69
38616;BME280;24370;51.986;4.666;2022-07-29T02:13:58;101788.47;;;26.65;35.21
38616;BME280;24370;51.986;4.666;2022-07-29T02:16:27;101785.88;;;26.20;35.74
38616;BME280;24370;51.986;4.666;2022-07-29T02:18:56;101792.44;;;26.00;35.91
38616;BME280;24370;51.986;4.666;2022-07-29T02:21:24;101788.94;;;26.28;35.75
38616;BME280;24370;51.986;4.666;2022-07-29T02:23:52;101787.84;;;26.02;35.82
38616;BME280;24370;51.986;4.666;2022-07-29T02:26:20;101790.00;;;26.69;35.17
38616;BME280;24370;51.986;4.666;2022-07-29T02:28:54;101785.59;;;26.39;35.35
38616;BME280;24370;51.986;4.666;2022-07-29T02:31:23;101785.03;;;25.59;36.53
38616;BME280;24370;51.986;4.666;2022-07-29T02:33:50;101786.25;;;26.14;35.92
38616;BME280;24370;51.986;4.666;2022-07-29T02:36:17;101789.16;;;26.54;35.52
38616;BME280;24370;51.986;4.666;2022-07-29T02:38:45;101788.56;;;26.63;35.02
38616;BME280;24370;51.986;4.666;2022-07-29T02:41:20;101783.63;;;25.67;36.44
38616;BME280;24370;51.986;4.666;2022-07-29T02:43:50;101778.69;;;25.13;37.36
38616;BME280;24370;51.986;4.666;2022-07-29T02:46:23;101773.72;;;26.14;35.56
38616;BME280;24370;51.986;4.666;2022-07-29T02:48:57;101774.31;;;26.48;35.01
38616;BME280;24370;51.986;4.666;2022-07-29T02:51:27;101780.16;;;25.19;36.94
38616;BME280;24370;51.986;4.666;2022-07-29T02:53:56;101780.56;;;25.27;38.02
38616;BME280;24370;51.986;4.666;2022-07-29T02:56:27;101777.81;;;24.65;38.37
38616;BME280;24370;51.986;4.666;2022-07-29T02:58:58;101779.47;;;26.22;36.15
38616;BME280;24370;51.986;4.666;2022-07-29T03:01:27;101772.91;;;25.37;36.86
38616;BME280;24370;51.986;4.666;2022-07-29T03:03:55;101776.41;;;25.53;36.82
38616;BME280;24370;51.986;4.666;2022-07-29T03:06:23;101775.75;;;25.80;36.38
38616;BME280;24370;51.986;4.666;2022-07-29T03:08:50;101771.22;;;26.11;36.00
38616;BME280;24370;51.986;4.666;2022-07-29T03:11:16;101776.78;;;26.08;36.23
38616;BME280;24370;51.986;4.666;2022-07-29T03:13:43;101786.38;;;24.03;39.64
38616;BME280;24370;51.986;4.666;2022-07-29T03:16:09;101770.38;;;25.18;37.67
38616;BME280;24370;51.986;4.666;2022-07-29T03:18:36;101774.03;;;24.51;38.64
38616;BME280;24370;51.986;4.666;2022-07-29T03:21:02;101768.63;;;24.19;39.61
38616;BME280;24370;51.986;4.666;2022-07-29T03:23:28;101766.03;;;25.63;36.42
38616;BME280;24370;51.986;4.666;2022-07-29T03:25:54;101773.69;;;24.24;39.04
38616;BME280;24370;51.986;4.666;2022-07-29T03:28:20;101769.75;;;25.61;36.98
38616;BME280;24370;51.986;4.666;2022-07-29T03:30:46;101766.34;;;25.73;36.68
38616;BME280;24370;51.986;4.666;2022-07-29T03:33:11;101760.31;;;25.07;37.28
38616;BME280;24370;51.986;4.666;2022-07-29T03:35:37;101760.31;;;25.39;37.19
38616;BME280;24370;51.986;4.666;2022-07-29T03:38:02;101754.56;;;25.29;37.43
38616;BME280;24370;51.986;4.666;2022-07-29T03:42:59;101758.75;;;24.71;38.31
38616;BME280;24370;51.986;4.666;2022-07-29T03:45:26;101749.16;;;24.99;37.24
38616;BME280;24370;51.986;4.666;2022-07-29T03:47:57;101758.03;;;24.34;39.02
38616;BME280;24370;51.986;4.666;2022-07-29T03:50:24;101755.25;;;24.19;39.12
38616;BME280;24370;51.986;4.666;2022-07-29T03:52:50;101758.22;;;25.44;36.95
38616;BME280;24370;51.986;4.666;2022-07-29T03:55:16;101758.84;;;25.94;36.50
38616;BME280;24370;51.986;4.666;2022-07-29T03:57:42;101759.88;;;24.99;37.45
38616;BME280;24370;51.986;4.666;2022-07-29T04:00:10;101761.31;;;25.52;36.66
38616;BME280;24370;51.986;4.666;2022-07-29T04:02:36;101762.59;;;26.06;36.10
38616;BME280;24370;51.986;4.666;2022-07-29T04:05:03;101755.88;;;25.22;37.23
38616;BME280;24370;51.986;4.666;2022-07-29T04:07:28;101761.38;;;24.04;39.76
38616;BME280;24370;51.986;4.666;2022-07-29T04:09:55;101756.28;;;25.93;36.53
38616;BME280;24370;51.986;4.666;2022-07-29T04:12:20;101770.56;;;25.77;36.36
38616;BME280;24370;51.986;4.666;2022-07-29T04:14:46;101766.25;;;25.12;37.21
38616;BME280;24370;51.986;4.666;2022-07-29T04:17:11;101770.47;;;24.51;39.11
38616;BME280;24370;51.986;4.666;2022-07-29T04:19:37;101767.47;;;25.22;36.93
38616;BME280;24370;51.986;4.666;2022-07-29T04:22:02;101762.47;;;25.16;37.29
38616;BME280;24370;51.986;4.666;2022-07-29T04:24:28;101764.66;;;25.86;36.22
38616;BME280;24370;51.986;4.666;2022-07-29T04:26:53;101760.66;;;25.33;37.33
38616;BME280;24370;51.986;4.666;2022-07-29T04:29:19;101759.09;;;25.75;36.35
38616;BME280;24370;51.986;4.666;2022-07-29T04:31:45;101759.72;;;25.34;36.73
38616;BME280;24370;51.986;4.666;2022-07-29T04:34:10;101759.53;;;25.67;36.25
38616;BME280;24370;51.986;4.666;2022-07-29T04:36:36;101756.56;;;25.42;36.54
38616;BME280;24370;51.986;4.666;2022-07-29T04:39:01;101770.75;;;25.44;36.45
38616;BME280;24370;51.986;4.666;2022-07-29T04:41:27;101768.69;;;25.94;35.79
38616;BME280;24370;51.986;4.666;2022-07-29T04:43:53;101766.59;;;25.84;35.70
38616;BME280;24370;51.986;4.666;2022-07-29T04:46:19;101770.59;;;25.91;35.83
38616;BME280;24370;51.986;4.666;2022-07-29T04:48:47;101765.50;;;25.87;35.62
38616;BME280;24370;51.986;4.666;2022-07-29T04:51:16;101766.66;;;26.28;34.98
38616;BME280;24370;51.986;4.666;2022-07-29T04:53:41;101763.34;;;25.01;36.86
38616;BME280;24370;51.986;4.666;2022-07-29T04:56:07;101756.09;;;25.35;36.30
38616;BME280;24370;51.986;4.666;2022-07-29T04:58:36;101757.19;;;24.67;37.98
38616;BME280;24370;51.986;4.666;2022-07-29T05:01:03;101755.47;;;25.76;36.37
38616;BME280;24370;51.986;4.666;2022-07-29T05:03:28;101759.28;;;26.02;35.97
38616;BME280;24370;51.986;4.666;2022-07-29T05:05:54;101767.53;;;25.21;36.79
38616;BME280;24370;51.986;4.666;2022-07-29T05:08:19;101757.03;;;25.02;37.20
38616;BME280;24370;51.986;4.666;2022-07-29T05:10:45;101753.63;;;25.30;36.65
38616;BME280;24370;51.986;4.666;2022-07-29T05:13:11;101761.38;;;25.67;36.15
38616;BME280;24370;51.986;4.666;2022-07-29T05:15:36;101766.66;;;26.28;35.17
38616;BME280;24370;51.986;4.666;2022-07-29T05:18:02;101763.59;;;26.05;35.88
38616;BME280;24370;51.986;4.666;2022-07-29T05:20:28;101760.72;;;26.22;35.34
38616;BME280;24370;51.986;4.666;2022-07-29T05:22:59;101766.34;;;25.73;36.37
38616;BME280;24370;51.986;4.666;2022-07-29T05:25:25;101767.13;;;25.89;36.21
38616;BME280;24370;51.986;4.666;2022-07-29T05:27:52;101765.00;;;25.50;36.67
38616;BME280;24370;51.986;4.666;2022-07-29T05:30:17;101771.06;;;26.57;34.99
38616;BME280;24370;51.986;4.666;2022-07-29T05:32:43;101777.84;;;25.75;36.25
38616;BME280;24370;51.986;4.666;2022-07-29T05:35:09;101775.34;;;26.17;35.51
38616;BME280;24370;51.986;4.666;2022-07-29T05:37:34;101774.72;;;26.42;35.48
38616;BME280;24370;51.986;4.666;2022-07-29T05:40:00;101782.25;;;26.79;34.89
38616;BME280;24370;51.986;4.666;2022-07-29T05:42:25;101783.88;;;26.23;35.43
38616;BME280;24370;51.986;4.666;2022-07-29T05:44:51;101783.81;;;25.64;36.87
38616;BME280;24370;51.986;4.666;2022-07-29T05:47:17;101785.31;;;26.29;35.72
38616;BME280;24370;51.986;4.666;2022-07-29T05:49:43;101786.09;;;26.46;35.17
38616;BME280;24370;51.986;4.666;2022-07-29T05:52:08;101779.31;;;26.83;34.80
38616;BME280;24370;51.986;4.666;2022-07-29T05:54:34;101769.44;;;28.06;33.29
38616;BME280;24370;51.986;4.666;2022-07-29T05:57:00;101785.03;;;27.19;34.00
38616;BME280;24370;51.986;4.666;2022-07-29T05:59:25;101793.25;;;26.59;35.23
38616;BME280;24370;51.986;4.666;2022-07-29T06:01:51;101792.38;;;27.30;33.92
38616;BME280;24370;51.986;4.666;2022-07-29T06:04:16;101795.84;;;26.90;34.55
38616;BME280;24370;51.986;4.666;2022-07-29T06:06:41;101804.09;;;26.44;35.03
38616;BME280;24370;51.986;4.666;2022-07-29T06:09:07;101791.44;;;27.58;33.46
38616;BME280;24370;51.986;4.666;2022-07-29T06:11:33;101793.00;;;27.20;33.92
38616;BME280;24370;51.986;4.666;2022-07-29T06:13:58;101789.81;;;26.29;34.69
38616;BME280;24370;51.986;4.666;2022-07-29T06:16:23;101787.28;;;27.12;34.06
38616;BME280;24370;51.986;4.666;2022-07-29T06:18:49;101790.63;;;26.74;34.12
38616;BME280;24370;51.986;4.666;2022-07-29T06:21:14;101784.19;;;27.73;32.85
38616;BME280;24370;51.986;4.666;2022-07-29T06:23:39;101783.75;;;27.66;33.72
38616;BME280;24370;51.986;4.666;2022-07-29T06:26:05;101788.53;;;28.79;31.92
38616;BME280;24370;51.986;4.666;2022-07-29T06:28:32;101790.03;;;28.57;31.70
38616;BME280;24370;51.986;4.666;2022-07-29T06:30:57;101796.06;;;27.29;33.73
38616;BME280;24370;51.986;4.666;2022-07-29T06:33:23;101796.50;;;26.65;34.11
38616;BME280;24370;51.986;4.666;2022-07-29T06:35:48;101791.53;;;28.87;32.30
38616;BME280;24370;51.986;4.666;2022-07-29T06:38:14;101795.88;;;28.38;31.72
38616;BME280;24370;51.986;4.666;2022-07-29T06:40:44;101797.59;;;27.18;34.00
38616;BME280;24370;51.986;4.666;2022-07-29T06:43:25;101796.41;;;28.43;31.89
38616;BME280;24370;51.986;4.666;2022-07-29T06:45:51;101795.03;;;30.08;29.30
38616;BME280;24370;51.986;4.666;2022-07-29T06:48:17;101804.22;;;30.06;29.08
38616;BME280;24370;51.986;4.666;2022-07-29T06:50:42;101808.44;;;30.33;28.91
38616;BME280;24370;51.986;4.666;2022-07-29T06:53:07;101811.38;;;28.97;30.58
38616;BME280;24370;51.986;4.666;2022-07-29T06:55:33;101803.44;;;28.96;30.68
38616;BME280;24370;51.986;4.666;2022-07-29T06:57:58;101812.00;;;28.38;31.95
38616;BME280;24370;51.986;4.666;2022-07-29T07:00:24;101811.09;;;27.99;32.38
38616;BME280;24370;51.986;4.666;2022-07-29T07:02:49;101815.00;;;28.72;31.67
38616;BME280;24370;51.986;4.666;2022-07-29T07:05:14;101810.22;;;27.85;32.29
38616;BME280;24370;51.986;4.666;2022-07-29T07:07:40;101818.94;;;30.13;29.88
38616;BME280;24370;51.986;4.666;2022-07-29T07:10:05;101817.06;;;30.49;29.20
38616;BME280;24370;51.986;4.666;2022-07-29T07:12:31;101816.50;;;31.67;28.35
38616;BME280;24370;51.986;4.666;2022-07-29T07:14:56;101822.94;;;30.54;28.54
38616;BME280;24370;51.986;4.666;2022-07-29T07:17:21;101826.59;;;30.65;29.02
38616;BME280;24370;51.986;4.666;2022-07-29T07:19:47;101834.06;;;30.84;29.29
38616;BME280;24370;51.986;4.666;2022-07-29T07:22:12;101836.16;;;30.80;29.13
38616;BME280;24370;51.986;4.666;2022-07-29T07:24:37;101824.59;;;32.30;28.08
38616;BME280;24370;51.986;4.666;2022-07-29T07:27:03;101833.03;;;31.74;28.04
38616;BME280;24370;51.986;4.666;2022-07-29T07:29:28;101834.34;;;30.81;28.92
38616;BME280;24370;51.986;4.666;2022-07-29T07:31:54;101833.03;;;31.74;27.77
38616;BME280;24370;51.986;4.666;2022-07-29T07:34:20;101835.94;;;30.83;29.12
38616;BME280;24370;51.986;4.666;2022-07-29T07:36:45;101829.59;;;31.72;27.70
38616;BME280;24370;51.986;4.666;2022-07-29T07:39:10;101841.84;;;32.60;28.21
38616;BME280;24370;51.986;4.666;2022-07-29T07:41:36;101838.19;;;32.71;26.05
38616;BME280;24370;51.986;4.666;2022-07-29T07:44:01;101838.50;;;32.78;27.70
38616;BME280;24370;51.986;4.666;2022-07-29T07:46:27;101828.25;;;32.51;27.20
38616;BME280;24370;51.986;4.666;2022-07-29T07:48:52;101826.94;;;32.45;26.60
38616;BME280;24370;51.986;4.666;2022-07-29T07:51:18;101839.81;;;32.10;26.49
38616;BME280;24370;51.986;4.666;2022-07-29T07:53:43;101836.78;;;32.46;27.42
38616;BME280;24370;51.986;4.666;2022-07-29T07:56:10;101834.63;;;33.21;25.52
38616;BME280;24370;51.986;4.666;2022-07-29T07:58:35;101835.69;;;31.85;26.69
38616;BME280;24370;51.986;4.666;2022-07-29T08:01:01;101832.81;;;32.19;26.67
38616;BME280;24370;51.986;4.666;2022-07-29T08:03:26;101831.22;;;31.19;28.14
38616;BME280;24370;51.986;4.666;2022-07-29T08:05:52;101821.03;;;31.55;28.50
38616;BME280;24370;51.986;4.666;2022-07-29T08:08:19;101825.97;;;32.46;27.82
38616;BME280;24370;51.986;4.666;2022-07-29T08:10:44;101814.31;;;32.24;27.25
38616;BME280;24370;51.986;4.666;2022-07-29T08:13:21;101826.97;;;30.83;29.14
38616;BME280;24370;51.986;4.666;2022-07-29T08:15:48;101820.50;;;31.73;27.65
38616;BME280;24370;51.986;4.666;2022-07-29T08:18:26;101818.13;;;32.74;27.35
38616;BME280;24370;51.986;4.666;2022-07-29T08:20:52;101822.63;;;31.58;27.24
38616;BME280;24370;51.986;4.666;2022-07-29T08:23:17;101816.88;;;32.88;27.30
38616;BME280;24370;51.986;4.666;2022-07-29T08:25:44;101829.31;;;32.59;26.96
38616;BME280;24370;51.986;4.666;2022-07-29T08:28:09;101822.69;;;33.53;25.77
38616;BME280;24370;51.986;4.666;2022-07-29T08:30:35;101824.81;;;33.40;25.43
38616;BME280;24370;51.986;4.666;2022-07-29T08:33:00;101831.13;;;35.12;25.07
38616;BME280;24370;51.986;4.666;2022-07-29T08:35:26;101840.88;;;35.05;22.69
38616;BME280;24370;51.986;4.666;2022-07-29T08:37:52;101837.06;;;34.97;24.54
38616;BME280;24370;51.986;4.666;2022-07-29T08:40:19;101842.19;;;34.35;24.28
38616;BME280;24370;51.986;4.666;2022-07-29T08:42:45;101843.88;;;36.02;22.26
38616;BME280;24370;51.986;4.666;2022-07-29T08:45:11;101835.34;;;36.92;21.79
38616;BME280;24370;51.986;4.666;2022-07-29T08:47:38;101841.91;;;37.24;20.96
38616;BME280;24370;51.986;4.666;2022-07-29T08:50:09;101824.44;;;37.59;20.86
38616;BME280;24370;51.986;4.666;2022-07-29T08:52:39;101835.47;;;37.41;21.07
38616;BME280;24370;51.986;4.666;2022-07-29T08:55:06;101836.59;;;35.48;22.62
38616;BME280;24370;51.986;4.666;2022-07-29T08:57:33;101834.66;;;37.82;21.00
38616;BME280;24370;51.986;4.666;2022-07-29T09:00:00;101845.16;;;39.68;19.04
38616;BME280;24370;51.986;4.666;2022-07-29T09:02:28;101837.00;;;37.68;19.94
38616;BME280;24370;51.986;4.666;2022-07-29T09:04:56;101836.84;;;35.37;22.43
38616;BME280;24370;51.986;4.666;2022-07-29T09:07:24;101834.28;;;35.53;22.40
38616;BME280;24370;51.986;4.666;2022-07-29T09:09:50;101828.41;;;34.84;23.18
38616;BME280;24370;51.986;4.666;2022-07-29T09:12:15;101829.25;;;35.30;22.55
38616;BME280;24370;51.986;4.666;2022-07-29T09:14:41;101830.94;;;36.04;21.83
38616;BME280;24370;51.986;4.666;2022-07-29T09:17:07;101836.34;;;33.22;24.56
38616;BME280;24370;51.986;4.666;2022-07-29T09:19:34;101832.97;;;33.40;24.93
38616;BME280;24370;51.986;4.666;2022-07-29T09:22:02;101833.03;;;31.74;26.88
38616;BME280;24370;51.986;4.666;2022-07-29T09:27:00;101822.63;;;31.90;27.37
38616;BME280;24370;51.986;4.666;2022-07-29T09:29:27;101828.41;;;31.65;27.79
38616;BME280;24370;51.986;4.666;2022-07-29T09:31:54;101824.41;;;32.53;26.65
38616;BME280;24370;51.986;4.666;2022-07-29T09:34:25;101826.34;;;32.32;26.74
38616;BME280;24370;51.986;4.666;2022-07-29T09:36:52;101831.81;;;34.58;24.35
38616;BME280;24370;51.986;4.666;2022-07-29T09:41:57;101835.88;;;34.82;24.50
38616;BME280;24370;51.986;4.666;2022-07-29T09:44:23;101822.00;;;35.49;23.29
38616;BME280;24370;51.986;4.666;2022-07-29T09:47:00;101827.41;;;34.85;23.88
38616;BME280;24370;51.986;4.666;2022-07-29T09:49:35;101827.00;;;36.24;22.89
38616;BME280;24370;51.986;4.666;2022-07-29T09:52:05;101827.44;;;35.49;22.81
38616;BME280;24370;51.986;4.666;2022-07-29T09:54:31;101828.56;;;36.61;22.23
38616;BME280;24370;51.986;4.666;2022-07-29T09:57:03;101821.16;;;36.37;22.37
38616;BME280;24370;51.986;4.666;2022-07-29T09:59:28;101828.84;;;35.53;23.11
38616;BME280;24370;51.986;4.666;2022-07-29T10:01:54;101819.69;;;36.51;22.60
38616;BME280;24370;51.986;4.666;2022-07-29T10:04:19;101822.25;;;36.95;22.19
38616;BME280;24370;51.986;4.666;2022-07-29T10:07:02;101821.34;;;37.29;21.29
38616;BME280;24370;51.986;4.666;2022-07-29T10:09:28;101818.84;;;36.59;22.08
38616;BME280;24370;51.986;4.666;2022-07-29T10:12:08;101815.13;;;37.11;22.79
38616;BME280;24370;51.986;4.666;2022-07-29T10:14:35;101818.97;;;37.34;21.17
38616;BME280;24370;51.986;4.666;2022-07-29T10:17:02;101809.56;;;37.95;21.13
38616;BME280;24370;51.986;4.666;2022-07-29T10:19:29;101819.97;;;37.99;21.51
38616;BME280;24370;51.986;4.666;2022-07-29T10:21:57;101829.94;;;36.65;22.21
38616;BME280;24370;51.986;4.666;2022-07-29T10:24:24;101824.88;;;36.36;22.48
38616;BME280;24370;51.986;4.666;2022-07-29T10:26:51;101823.53;;;35.33;23.71
38616;BME280;24370;51.986;4.666;2022-07-29T10:29:17;101822.31;;;36.69;22.76
38616;BME280;24370;51.986;4.666;2022-07-29T10:37:25;101820.72;;;35.97;23.36
38616;BME280;24370;51.986;4.666;2022-07-29T10:43:37;101817.56;;;35.30;23.90
38616;BME280;24370;51.986;4.666;2022-07-29T10:46:03;101821.53;;;34.90;22.87
38616;BME280;24370;51.986;4.666;2022-07-29T10:48:29;101822.59;;;35.25;23.44
38616;BME280;24370;51.986;4.666;2022-07-29T10:51:03;101812.44;;;36.07;22.21
38616;BME280;24370;51.986;4.666;2022-07-29T10:53:50;101808.38;;;36.38;22.33
38616;BME280;24370;51.986;4.666;2022-07-29T10:56:26;101808.50;;;36.02;23.10
38616;BME280;24370;51.986;4.666;2022-07-29T11:01:46;101800.84;;;36.58;21.79
38616;BME280;24370;51.986;4.666;2022-07-29T11:04:12;101806.63;;;34.38;23.37
38616;BME280;24370;51.986;4.666;2022-07-29T11:09:25;101803.59;;;37.25;20.87
38616;BME280;24370;51.986;4.666;2022-07-29T11:11:51;101807.31;;;33.63;23.39
38616;BME280;24370;51.986;4.666;2022-07-29T11:14:18;101799.75;;;33.77;24.17
38616;BME280;24370;51.986;4.666;2022-07-29T11:17:04;101793.31;;;35.73;20.97
38616;BME280;24370;51.986;4.666;2022-07-29T11:19:29;101801.78;;;34.22;23.34
38616;BME280;24370;51.986;4.666;2022-07-29T11:21:55;101799.53;;;36.70;22.02
38616;BME280;24370;51.986;4.666;2022-07-29T11:24:29;101798.38;;;35.67;22.26
38616;BME280;24370;51.986;4.666;2022-07-29T11:27:26;101804.78;;;34.94;23.11
38616;BME280;24370;51.986;4.666;2022-07-29T11:29:58;101799.25;;;35.32;23.36
38616;BME280;24370;51.986;4.666;2022-07-29T11:32:36;101801.88;;;37.24;21.52
38616;BME280;24370;51.986;4.666;2022-07-29T11:35:13;101797.94;;;36.59;22.15
38616;BME280;24370;51.986;4.666;2022-07-29T11:37:39;101806.09;;;34.62;23.32
38616;BME280;24370;51.986;4.666;2022-07-29T11:42:37;101797.66;;;36.79;20.37
38616;BME280;24370;51.986;4.666;2022-07-29T11:47:38;101809.59;;;34.73;22.23
38616;BME280;24370;51.986;4.666;2022-07-29T11:50:07;101793.66;;;36.99;20.71
38616;BME280;24370;51.986;4.666;2022-07-29T11:52:51;101795.50;;;36.40;20.65
38616;BME280;24370;51.986;4.666;2022-07-29T11:55:19;101798.72;;;36.17;21.38
38616;BME280;24370;51.986;4.666;2022-07-29T11:57:56;101803.72;;;36.99;19.92
38616;BME280;24370;51.986;4.666;2022-07-29T12:00:35;101800.91;;;37.66;19.64
38616;BME280;24370;51.986;4.666;2022-07-29T12:03:02;101808.97;;;38.41;19.42
38616;BME280;24370;51.986;4.666;2022-07-29T12:05:39;101802.22;;;38.99;19.08
38616;BME280;24370;51.986;4.666;2022-07-29T12:08:16;101802.38;;;38.75;18.20
38616;BME280;24370;51.986;4.666;2022-07-29T12:10:44;101798.59;;;38.67;18.96
38616;BME280;24370;51.986;4.666;2022-07-29T12:13:11;101799.50;;;38.04;18.38
38616;BME280;24370;51.986;4.666;2022-07-29T12:15:37;101805.34;;;36.83;19.80
38616;BME280;24370;51.986;4.666;2022-07-29T12:18:18;101804.50;;;39.42;17.15
38616;BME280;24370;51.986;4.666;2022-07-29T12:20:46;101810.09;;;38.55;18.74
38616;BME280;24370;51.986;4.666;2022-07-29T12:23:11;101807.69;;;38.04;20.11
38616;BME280;24370;51.986;4.666;2022-07-29T12:25:38;101811.78;;;37.99;18.52
38616;BME280;24370;51.986;4.666;2022-07-29T12:28:08;101803.94;;;38.13;18.05
38616;BME280;24370;51.986;4.666;2022-07-29T12:30:55;101802.94;;;37.64;18.83
38616;BME280;24370;51.986;4.666;2022-07-29T12:33:27;101803.66;;;39.10;17.50
38616;BME280;24370;51.986;4.666;2022-07-29T12:35:57;101805.25;;;38.33;18.69
38616;BME280;24370;51.986;4.666;2022-07-29T12:38:24;101801.88;;;38.23;18.02
38616;BME280;24370;51.986;4.666;2022-07-29T12:40:51;101804.50;;;38.48;18.02
38616;BME280;24370;51.986;4.666;2022-07-29T12:43:22;101812.06;;;36.97;19.97
38616;BME280;24370;51.986;4.666;2022-07-29T12:45:50;101807.72;;;37.87;19.15
38616;BME280;24370;51.986;4.666;2022-07-29T12:48:17;101802.25;;;37.29;19.84
38616;BME280;24370;51.986;4.666;2022-07-29T12:51:00;101804.75;;;36.29;21.02
38616;BME280;24370;51.986;4.666;2022-07-29T12:53:26;101800.88;;;37.75;19.32
38616;BME280;24370;51.986;4.666;2022-07-29T12:55:53;101795.94;;;36.78;20.68
38616;BME280;24370;51.986;4.666;2022-07-29T12:58:31;101805.97;;;35.10;22.03
38616;BME280;24370;51.986;4.666;2022-07-29T13:01:10;101803.06;;;34.65;21.54
38616;BME280;24370;51.986;4.666;2022-07-29T13:04:03;101799.00;;;35.43;21.05
38616;BME280;24370;51.986;4.666;2022-07-29T13:06:43;101793.88;;;36.63;20.08
38616;BME280;24370;51.986;4.666;2022-07-29T13:09:17;101790.22;;;36.46;19.34
38616;BME280;24370;51.986;4.666;2022-07-29T13:14:12;101792.06;;;33.53;21.94
38616;BME280;24370;51.986;4.666;2022-07-29T13:19:50;101789.13;;;37.41;18.67
38616;BME280;24370;51.986;4.666;2022-07-29T13:22:20;101785.81;;;36.88;19.62
38616;BME280;24370;51.986;4.666;2022-07-29T13:24:51;101796.09;;;35.27;21.06
38616;BME280;24370;51.986;4.666;2022-07-29T13:27:18;101793.94;;;35.30;21.02
38616;BME280;24370;51.986;4.666;2022-07-29T13:29:44;101795.06;;;36.00;20.44
38616;BME280;24370;51.986;4.666;2022-07-29T13:32:11;101793.63;;;36.83;19.86
38616;BME280;24370;51.986;4.666;2022-07-29T13:34:36;101800.69;;;37.27;19.50
38616;BME280;24370;51.986;4.666;2022-07-29T13:37:02;101789.13;;;36.05;20.16